createdAt,value
2022-09-02T00:02:57.177Z,1.00
2022-09-02T00:08:01.539Z,1.15
2022-09-02T00:13:04.699Z,1.25
2022-09-02T00:18:12.540Z,1.38
2022-09-02T00:23:20.345Z,0.95
2022-09-02T00:28:23.273Z,1.20
2022-09-02T00:33:27.102Z,1.48
2022-09-02T00:38:33.716Z,1.25
2022-09-02T00:43:44.167Z,1.23
2022-09-02T00:48:49.327Z,1.27
2022-09-02T00:53:53.678Z,1.20
2022-09-02T00:58:56.813Z,1.25
2022-09-02T01:03:59.650Z,1.20
2022-09-02T01:09:08.398Z,1.13
2022-09-02T01:14:13.818Z,1.10
2022-09-02T01:19:22.947Z,1.25
2022-09-02T01:24:30.047Z,1.20
2022-09-02T01:29:32.775Z,1.20
2022-09-02T01:34:37.877Z,1.25
2022-09-02T01:39:42.678Z,1.30
2022-09-02T01:44:46.155Z,1.27
2022-09-02T01:49:50.680Z,1.25
2022-09-02T01:54:55.294Z,1.27
2022-09-02T01:59:58.253Z,1.17
2022-09-02T02:05:02.692Z,1.23
2022-09-02T02:10:08.174Z,1.40
2022-09-02T02:15:15.034Z,1.48
2022-09-02T02:20:19.582Z,1.13
2022-09-02T02:25:24.046Z,1.45
2022-09-02T02:30:29.819Z,1.50
2022-09-02T02:35:33.525Z,1.58
2022-09-02T02:40:38.492Z,1.50
2022-09-02T02:45:41.901Z,1.30
2022-09-02T02:50:44.979Z,1.40
2022-09-02T02:55:49.889Z,1.42
2022-09-02T03:00:54.176Z,1.45
2022-09-02T03:05:58.074Z,1.35
2022-09-02T03:11:06.986Z,1.50
2022-09-02T03:16:14.049Z,1.50
2022-09-02T03:21:18.303Z,1.35
2022-09-02T03:26:25.768Z,1.60
2022-09-02T03:31:29.337Z,1.80
2022-09-02T03:36:36.162Z,1.58
2022-09-02T03:41:42.002Z,1.42
2022-09-02T03:46:45.587Z,1.65
2022-09-02T03:51:48.452Z,1.55
2022-09-02T03:56:53.526Z,1.70
2022-09-02T04:01:56.901Z,1.63
2022-09-02T04:07:00.503Z,1.55
2022-09-02T04:12:07.075Z,1.77
2022-09-02T04:17:10.809Z,1.67
2022-09-02T04:22:13.685Z,1.67
2022-09-02T04:27:17.984Z,1.50
2022-09-02T04:32:21.792Z,1.52
2022-09-02T04:37:26.339Z,1.50
2022-09-02T04:42:31.074Z,1.70
2022-09-02T04:47:34.192Z,1.83
2022-09-02T04:52:38.023Z,1.60
2022-09-02T04:57:42.596Z,1.77
2022-09-02T05:02:45.677Z,1.50
2022-09-02T05:07:49.408Z,1.90
2022-09-02T05:12:54.427Z,2.17
2022-09-02T05:17:57.505Z,3.55
2022-09-02T05:23:00.870Z,2.45
2022-09-02T05:28:06.422Z,1.90
2022-09-02T05:33:10.460Z,1.77
2022-09-02T05:38:17.342Z,2.15
2022-09-02T05:43:24.009Z,2.00
2022-09-02T05:48:44.415Z,1.85
2022-09-02T05:53:47.937Z,1.77
2022-09-02T05:58:52.974Z,1.83
2022-09-02T06:03:57.463Z,2.83
2022-09-02T06:09:00.580Z,1.88
2022-09-02T06:14:07.452Z,1.65
2022-09-02T06:19:16.442Z,1.42
2022-09-02T06:24:24.601Z,1.80
2022-09-02T06:29:29.081Z,1.88
2022-09-02T06:34:32.105Z,1.67
2022-09-02T06:39:35.921Z,1.85
2022-09-02T06:44:41.467Z,1.42
2022-09-02T06:49:44.307Z,1.63
2022-09-02T06:54:47.176Z,1.40
2022-09-02T06:59:52.882Z,1.88
2022-09-02T07:05:16.009Z,1.70
2022-09-02T07:10:21.809Z,1.27
2022-09-02T07:15:30.042Z,1.08
2022-09-02T07:20:33.366Z,0.95
2022-09-02T07:25:39.479Z,0.70
2022-09-02T07:30:45.899Z,0.80
2022-09-02T07:35:53.148Z,0.90
2022-09-02T07:40:57.478Z,1.10
2022-09-02T07:46:06.053Z,1.20
2022-09-02T07:51:09.512Z,0.88
2022-09-02T07:56:15.032Z,0.82
2022-09-02T08:01:23.488Z,0.80
2022-09-02T08:06:34.819Z,0.70
2022-09-02T08:11:39.804Z,0.70
2022-09-02T08:16:44.061Z,0.50
2022-09-02T08:21:46.920Z,0.70
2022-09-02T08:26:49.898Z,1.10
2022-09-02T08:31:54.332Z,0.52
2022-09-02T08:36:57.947Z,0.60
2022-09-02T08:42:05.930Z,0.50
2022-09-02T08:47:13.766Z,0.60
2022-09-02T08:52:23.705Z,0.60
2022-09-02T08:57:27.625Z,0.50
2022-09-02T09:02:46.655Z,0.60
2022-09-02T09:08:00.869Z,0.70
2022-09-02T09:13:20.286Z,0.68
2022-09-02T09:18:29.302Z,0.80
2022-09-02T09:23:34.692Z,1.05
2022-09-02T09:28:45.381Z,0.70
2022-09-02T09:33:59.934Z,0.55
2022-09-02T09:39:18.609Z,0.63
2022-09-02T09:44:45.332Z,0.57
2022-09-02T09:49:51.415Z,0.70
2022-09-02T09:55:13.588Z,0.50
2022-09-02T10:00:22.007Z,0.45
2022-09-02T10:05:36.181Z,0.60
2022-09-02T10:10:39.029Z,0.77
2022-09-02T10:15:46.490Z,0.40
2022-09-02T10:21:11.774Z,0.50
2022-09-02T10:31:39.375Z,0.50
2022-09-02T10:36:58.834Z,0.60
2022-09-02T10:42:10.361Z,0.40
2022-09-02T10:47:20.448Z,0.40
2022-09-02T10:52:58.003Z,0.47
2022-09-02T10:58:03.036Z,0.43
2022-09-02T11:03:16.273Z,0.32
2022-09-02T11:08:29.573Z,0.40
2022-09-02T11:13:38.721Z,0.30
2022-09-02T11:18:46.156Z,0.30
2022-09-02T11:23:55.002Z,0.52
2022-09-02T11:29:02.974Z,0.30
2022-09-02T11:34:17.523Z,0.20
2022-09-02T11:39:36.467Z,0.32
2022-09-02T11:45:14.527Z,0.30
2022-09-02T11:50:56.140Z,0.20
2022-09-02T11:56:03.094Z,0.30
2022-09-02T12:01:19.833Z,0.25
2022-09-02T12:06:27.774Z,0.30
2022-09-02T12:11:50.155Z,0.30
2022-09-02T12:17:03.857Z,0.30
2022-09-02T12:22:28.300Z,0.75
2022-09-02T12:27:36.595Z,0.25
2022-09-02T12:33:05.225Z,0.30
2022-09-02T12:38:41.851Z,0.30
2022-09-02T12:44:05.560Z,0.40
2022-09-02T12:49:14.853Z,0.30
2022-09-02T12:54:18.282Z,0.38
2022-09-02T12:59:29.722Z,0.30
2022-09-02T13:04:39.954Z,0.32
2022-09-02T13:09:51.541Z,0.32
2022-09-02T13:15:03.057Z,0.50
2022-09-02T13:20:33.926Z,0.43
2022-09-02T13:25:51.560Z,0.30
2022-09-02T13:31:06.042Z,0.50
2022-09-02T13:36:09.183Z,0.30
2022-09-02T13:41:11.958Z,0.30
2022-09-02T13:46:16.062Z,0.70
2022-09-02T13:51:18.812Z,0.40
2022-09-02T13:56:27.204Z,0.35
2022-09-02T14:01:34.012Z,0.38
2022-09-02T14:06:38.812Z,0.40
2022-09-02T14:11:43.776Z,0.40
2022-09-02T14:16:47.874Z,0.40
2022-09-02T14:21:53.379Z,0.40
2022-09-02T14:26:57.221Z,0.30
2022-09-02T14:32:15.174Z,0.40
2022-09-02T14:37:24.087Z,0.30
2022-09-02T14:42:29.319Z,0.40
2022-09-02T14:47:37.839Z,0.40
2022-09-02T14:52:47.740Z,0.80
2022-09-02T14:58:02.674Z,0.30
2022-09-02T15:03:08.135Z,0.40
2022-09-02T15:08:11.065Z,0.50
2022-09-02T15:13:15.933Z,0.50
2022-09-02T15:18:20.285Z,0.40
2022-09-02T15:23:24.253Z,0.47
2022-09-02T15:28:27.804Z,0.50
2022-09-02T15:33:32.336Z,1.02
2022-09-02T15:38:35.832Z,0.40
2022-09-02T15:43:38.740Z,0.30
2022-09-02T15:48:42.781Z,0.50
2022-09-02T15:53:45.694Z,0.50
2022-09-02T15:58:48.881Z,0.38
2022-09-02T16:03:53.181Z,0.50
2022-09-02T16:08:56.633Z,0.70
2022-09-02T16:13:59.342Z,0.52
2022-09-02T16:19:05.083Z,0.35
2022-09-02T16:24:08.640Z,0.70
2022-09-02T16:29:13.700Z,0.75
2022-09-02T16:34:19.933Z,0.90
2022-09-02T16:39:23.089Z,0.60
2022-09-02T16:44:26.674Z,0.52
2022-09-02T16:49:32.067Z,0.50
2022-09-02T16:54:38.670Z,0.43
2022-09-02T16:59:43.382Z,1.60
2022-09-02T17:04:47.571Z,1.33
2022-09-02T17:09:50.235Z,1.10
2022-09-02T17:14:53.012Z,1.05
2022-09-02T17:19:57.077Z,0.75
2022-09-02T17:24:59.846Z,0.82
2022-09-02T17:30:02.883Z,0.90
2022-09-02T17:35:08.478Z,0.82
2022-09-02T17:40:33.075Z,0.60
2022-09-02T17:45:37.459Z,0.73
2022-09-02T17:50:41.565Z,0.70
2022-09-02T17:55:44.831Z,0.82
2022-09-02T18:00:50.186Z,0.60
2022-09-02T18:06:05.858Z,0.77
2022-09-02T18:11:08.754Z,0.85
2022-09-02T18:16:23.511Z,0.52
2022-09-02T18:21:30.680Z,1.05
2022-09-02T18:26:44.692Z,2.40
2022-09-02T18:31:52.774Z,0.80
2022-09-02T18:37:05.820Z,0.88
2022-09-02T18:42:18.347Z,0.68
2022-09-02T18:47:23.344Z,0.50
2022-09-02T18:52:29.620Z,1.00
2022-09-02T18:57:38.723Z,1.10
2022-09-02T19:02:46.384Z,0.90
2022-09-02T19:08:14.566Z,0.85
2022-09-02T19:13:18.878Z,0.88
2022-09-02T19:18:22.057Z,0.90
2022-09-02T19:23:26.530Z,0.80
2022-09-02T19:28:29.821Z,0.52
2022-09-02T19:33:34.785Z,0.90
2022-09-02T19:38:39.214Z,1.13
2022-09-02T19:43:42.503Z,1.52
2022-09-02T19:48:45.219Z,1.20
2022-09-02T19:53:49.327Z,0.77
2022-09-02T19:58:52.431Z,0.80
2022-09-02T20:03:55.208Z,0.70
2022-09-02T20:08:59.477Z,0.70
2022-09-02T20:14:04.192Z,0.70
2022-09-02T20:19:07.086Z,0.60
2022-09-02T20:24:13.630Z,1.00
2022-09-02T20:29:29.622Z,0.68
2022-09-02T20:34:51.089Z,0.70
2022-09-02T20:40:08.807Z,0.60
2022-09-02T20:45:16.324Z,0.63
2022-09-02T20:50:31.974Z,0.70
2022-09-02T20:55:40.328Z,1.60
2022-09-02T21:00:47.270Z,1.90
2022-09-02T21:05:56.094Z,2.78
2022-09-02T21:11:02.437Z,1.63
2022-09-02T21:16:08.756Z,1.25
2022-09-02T21:21:17.292Z,0.85
2022-09-02T21:26:25.173Z,1.10
2022-09-02T21:31:32.503Z,1.00
2022-09-02T21:36:37.005Z,2.47
2022-09-02T21:41:44.054Z,1.35
2022-09-02T21:47:01.182Z,1.55
2022-09-02T21:52:10.366Z,1.02
2022-09-02T21:57:23.379Z,1.17
2022-09-02T22:02:32.780Z,2.67
2022-09-02T22:07:40.135Z,2.05
2022-09-02T22:12:52.021Z,1.00
2022-09-02T22:18:00.159Z,0.70
2022-09-02T22:23:05.537Z,0.75
2022-09-02T22:28:12.929Z,0.70
2022-09-02T22:33:19.009Z,0.63
2022-09-02T22:38:26.309Z,0.70
2022-09-02T22:43:34.476Z,0.77
2022-09-02T22:49:06.771Z,0.70
2022-09-02T22:54:09.824Z,0.57
2022-09-02T22:59:26.499Z,0.80
2022-09-02T23:04:42.035Z,0.70
2022-09-02T23:09:45.038Z,0.70
2022-09-02T23:14:53.732Z,0.70
2022-09-02T23:20:12.331Z,0.60
2022-09-02T23:25:37.728Z,0.60
2022-09-02T23:30:52.383Z,0.60
2022-09-02T23:36:02.853Z,0.80
2022-09-02T23:41:08.954Z,0.75
2022-09-02T23:46:20.087Z,0.90
2022-09-02T23:51:30.250Z,0.80
2022-09-02T23:56:46.626Z,0.70
